createdAt,value
2019-02-02T00:00:21.907Z,33.95
2019-02-02T00:02:50.203Z,31.62
2019-02-02T00:05:18.458Z,32.10
2019-02-02T00:07:46.763Z,32.33
2019-02-02T00:10:15.073Z,33.18
2019-02-02T00:12:43.336Z,33.10
2019-02-02T00:15:11.612Z,33.53
2019-02-02T00:17:39.870Z,34.40
2019-02-02T00:20:29.186Z,30.85
2019-02-02T00:22:57.443Z,29.50
2019-02-02T00:25:25.746Z,31.87
2019-02-02T00:27:54.046Z,34.03
2019-02-02T00:30:22.391Z,33.20
2019-02-02T00:32:50.730Z,30.77
2019-02-02T00:35:19.020Z,32.83
2019-02-02T00:37:47.275Z,32.63
2019-02-02T00:40:17.832Z,32.95
2019-02-02T00:42:46.124Z,32.10
2019-02-02T00:45:17.433Z,33.58
2019-02-02T00:47:45.691Z,33.25
2019-02-02T00:50:14.997Z,31.40
2019-02-02T00:52:43.278Z,32.40
2019-02-02T00:55:14.239Z,32.63
2019-02-02T00:57:52.894Z,32.60
2019-02-02T01:00:37.611Z,33.42
2019-02-02T01:03:06.345Z,29.37
2019-02-02T01:05:34.623Z,32.03
2019-02-02T01:08:02.875Z,32.67
2019-02-02T01:10:52.202Z,33.10
2019-02-02T01:13:20.463Z,31.75
2019-02-02T01:15:48.761Z,32.75
2019-02-02T01:18:17.145Z,32.98
2019-02-02T01:20:45.435Z,33.65
2019-02-02T01:23:13.716Z,31.75
2019-02-02T01:25:41.970Z,31.00
2019-02-02T01:28:10.246Z,31.50
2019-02-02T01:30:38.523Z,32.65
2019-02-02T01:33:06.804Z,33.23
2019-02-02T01:35:35.071Z,33.05
2019-02-02T01:38:03.370Z,33.67
2019-02-02T01:40:31.639Z,32.95
2019-02-02T01:42:59.911Z,34.08
2019-02-02T01:45:29.079Z,32.67
2019-02-02T01:47:57.718Z,32.63
2019-02-02T01:50:27.306Z,31.05
2019-02-02T01:52:55.587Z,32.85
2019-02-02T01:55:23.905Z,32.67
2019-02-02T01:57:52.163Z,33.05
2019-02-02T02:00:33.563Z,32.88
2019-02-02T02:03:01.890Z,32.42
2019-02-02T02:05:30.182Z,32.53
2019-02-02T02:07:59.182Z,31.30
2019-02-02T02:10:27.459Z,32.45
2019-02-02T02:12:55.810Z,30.00
2019-02-02T02:15:24.088Z,31.37
2019-02-02T02:17:52.355Z,31.85
2019-02-02T02:20:23.948Z,34.00
2019-02-02T02:25:21.545Z,27.73
2019-02-02T02:27:50.179Z,29.25
2019-02-02T02:30:23.193Z,31.23
2019-02-02T02:32:52.501Z,32.38
2019-02-02T02:35:20.832Z,32.88
2019-02-02T02:37:49.136Z,33.38
2019-02-02T02:40:22.851Z,35.25
2019-02-02T02:42:51.927Z,32.55
2019-02-02T02:45:20.203Z,34.55
2019-02-02T02:47:48.516Z,31.95
2019-02-02T02:50:19.178Z,33.50
2019-02-02T02:55:16.172Z,28.52
2019-02-02T02:57:44.479Z,31.30
2019-02-02T03:00:18.044Z,31.52
2019-02-02T03:02:46.350Z,31.77
2019-02-02T03:05:15.156Z,33.23
2019-02-02T03:07:43.424Z,33.58
2019-02-02T03:10:14.702Z,32.63
2019-02-02T03:12:42.963Z,34.63
2019-02-02T03:15:13.583Z,32.85
2019-02-02T03:18:01.311Z,31.50
2019-02-02T03:20:29.593Z,33.75
2019-02-02T03:22:57.855Z,30.68
2019-02-02T03:25:26.795Z,31.93
2019-02-02T03:27:55.092Z,33.30
2019-02-02T03:30:23.351Z,30.32
2019-02-02T03:32:51.630Z,31.12
2019-02-02T03:35:22.691Z,29.85
2019-02-02T03:37:51.340Z,32.45
2019-02-02T03:40:21.257Z,33.85
2019-02-02T03:42:49.602Z,34.20
2019-02-02T03:45:23.001Z,34.83
2019-02-02T03:47:51.938Z,37.00
2019-02-02T03:50:20.195Z,34.50
2019-02-02T03:52:48.489Z,34.00
2019-02-02T03:55:16.763Z,34.08
2019-02-02T03:57:45.146Z,34.73
2019-02-02T04:00:34.599Z,35.50
2019-02-02T04:03:02.876Z,33.15
2019-02-02T04:05:31.139Z,33.53
2019-02-02T04:07:59.430Z,35.08
2019-02-02T04:10:27.694Z,35.33
2019-02-02T04:12:55.950Z,34.65
2019-02-02T04:15:24.233Z,35.35
2019-02-02T04:18:11.924Z,35.78
2019-02-02T04:20:40.191Z,34.20
2019-02-02T04:23:08.467Z,32.30
2019-02-02T04:25:36.747Z,35.45
2019-02-02T04:28:05.020Z,37.33
2019-02-02T04:30:33.299Z,35.25
2019-02-02T04:33:01.576Z,36.13
2019-02-02T04:35:29.842Z,35.83
2019-02-02T04:37:58.119Z,34.13
2019-02-02T04:40:26.408Z,36.45
2019-02-02T04:42:54.681Z,35.48
2019-02-02T04:45:22.942Z,37.85
2019-02-02T04:47:51.223Z,41.20
2019-02-02T04:50:20.926Z,38.05
2019-02-02T04:52:49.199Z,40.12
2019-02-02T04:55:36.891Z,38.25
2019-02-02T04:58:05.171Z,44.53
2019-02-02T05:00:33.435Z,41.50
2019-02-02T05:03:01.711Z,39.95
2019-02-02T05:05:30.028Z,40.70
2019-02-02T05:07:58.375Z,38.63
2019-02-02T05:10:26.631Z,37.00
2019-02-02T05:12:54.892Z,41.70
2019-02-02T05:15:23.183Z,35.43
2019-02-02T05:17:51.443Z,37.00
2019-02-02T05:20:40.795Z,34.92
2019-02-02T05:23:09.043Z,34.38
2019-02-02T05:25:37.455Z,36.40
2019-02-02T05:28:05.779Z,36.25
2019-02-02T05:30:34.066Z,34.38
2019-02-02T05:33:02.411Z,31.57
2019-02-02T05:35:30.686Z,33.00
2019-02-02T05:37:58.952Z,33.00
2019-02-02T05:40:27.231Z,30.48
2019-02-02T05:42:55.507Z,32.23
2019-02-02T05:45:24.302Z,33.23
2019-02-02T05:47:52.564Z,31.90
2019-02-02T05:50:22.918Z,32.25
2019-02-02T05:53:12.284Z,32.78
2019-02-02T05:55:40.579Z,33.13
2019-02-02T05:58:08.834Z,36.03
2019-02-02T06:00:38.763Z,34.03
2019-02-02T06:03:07.042Z,36.53
2019-02-02T06:05:35.306Z,35.68
2019-02-02T06:08:03.582Z,36.65
2019-02-02T06:10:31.851Z,36.42
2019-02-02T06:13:00.477Z,34.00
2019-02-02T06:15:29.181Z,34.08
2019-02-02T06:17:57.595Z,32.33
2019-02-02T06:20:25.854Z,35.92
2019-02-02T06:22:54.130Z,35.80
2019-02-02T06:25:22.405Z,38.23
2019-02-02T06:27:50.688Z,39.13
2019-02-02T06:30:39.999Z,37.93
2019-02-02T06:33:08.293Z,37.55
2019-02-02T06:35:36.554Z,37.98
2019-02-02T06:38:04.830Z,36.93
2019-02-02T06:40:33.402Z,36.30
2019-02-02T06:43:01.690Z,41.80
2019-02-02T06:45:33.198Z,43.90
2019-02-02T06:48:01.473Z,42.58
2019-02-02T06:50:29.824Z,44.58
2019-02-02T06:52:58.649Z,40.30
2019-02-02T06:55:26.926Z,39.92
2019-02-02T06:57:55.195Z,39.25
2019-02-02T07:00:28.029Z,41.13
2019-02-02T07:02:56.327Z,41.25
2019-02-02T07:05:24.570Z,40.65
2019-02-02T07:07:52.850Z,41.50
2019-02-02T07:10:23.047Z,40.43
2019-02-02T07:12:51.326Z,41.10
2019-02-02T07:15:22.387Z,42.50
2019-02-02T07:17:51.027Z,42.48
2019-02-02T07:20:19.292Z,45.00
2019-02-02T07:22:47.572Z,41.25
2019-02-02T07:25:15.843Z,41.90
2019-02-02T07:27:44.118Z,40.70
2019-02-02T07:30:14.730Z,40.67
2019-02-02T07:32:43.026Z,39.03
2019-02-02T07:35:32.367Z,37.88
2019-02-02T07:38:00.646Z,41.28
2019-02-02T07:40:28.931Z,46.95
2019-02-02T07:42:57.202Z,42.03
2019-02-02T07:45:27.748Z,40.85
2019-02-02T07:50:23.578Z,35.50
2019-02-02T07:52:51.863Z,40.55
2019-02-02T07:55:21.504Z,43.10
2019-02-02T07:57:49.773Z,40.23
2019-02-02T08:03:07.523Z,39.80
2019-02-02T08:05:35.787Z,39.25
2019-02-02T08:08:04.327Z,41.65
2019-02-02T08:10:32.775Z,44.25
2019-02-02T08:13:01.050Z,46.30
2019-02-02T08:15:50.404Z,44.42
2019-02-02T08:18:18.743Z,48.38
2019-02-02T08:20:47.005Z,45.43
2019-02-02T08:23:15.284Z,48.68
2019-02-02T08:25:43.609Z,52.48
2019-02-02T08:28:11.912Z,46.33
2019-02-02T08:30:51.646Z,49.00
2019-02-02T08:33:10.196Z,47.07
2019-02-02T08:35:38.461Z,52.65
2019-02-02T08:38:06.758Z,49.93
2019-02-02T08:40:35.156Z,52.62
2019-02-02T08:43:03.427Z,47.65
2019-02-02T08:45:31.762Z,50.45
2019-02-02T08:48:00.063Z,47.83
2019-02-02T08:50:49.450Z,49.67
2019-02-02T08:53:17.761Z,46.88
2019-02-02T08:55:46.131Z,49.95
2019-02-02T08:58:14.440Z,51.60
2019-02-02T09:00:42.751Z,51.40
2019-02-02T09:03:11.067Z,55.28
2019-02-02T09:05:39.421Z,52.17
2019-02-02T09:08:07.803Z,52.55
2019-02-02T09:10:36.119Z,50.98
2019-02-02T09:13:04.500Z,54.00
2019-02-02T09:15:32.781Z,51.00
2019-02-02T09:18:01.046Z,52.70
2019-02-02T09:20:29.419Z,54.95
2019-02-02T09:23:06.048Z,51.90
2019-02-02T09:25:27.682Z,47.05
2019-02-02T09:27:55.959Z,48.75
2019-02-02T09:30:27.035Z,47.30
2019-02-02T09:32:55.293Z,50.43
2019-02-02T09:35:23.571Z,51.53
2019-02-02T09:37:51.839Z,51.25
2019-02-02T09:40:20.671Z,51.37
2019-02-02T09:42:48.931Z,47.58
2019-02-02T09:45:21.590Z,49.67
2019-02-02T09:47:49.860Z,48.87
2019-02-02T09:50:20.743Z,51.63
2019-02-02T09:52:48.999Z,50.73
2019-02-02T09:55:19.153Z,54.45
2019-02-02T09:57:48.473Z,55.60
2019-02-02T10:00:40.431Z,53.48
2019-02-02T10:03:08.733Z,50.63
2019-02-02T10:05:37.171Z,51.68
2019-02-02T10:08:05.457Z,49.67
2019-02-02T10:10:35.149Z,48.95
2019-02-02T10:13:03.463Z,49.15
2019-02-02T10:15:31.723Z,52.90
2019-02-02T10:18:00.006Z,53.05
2019-02-02T10:20:30.220Z,50.55
2019-02-02T10:23:00.147Z,53.40
2019-02-02T10:25:30.086Z,53.75
2019-02-02T10:27:58.410Z,53.57
2019-02-02T10:30:51.740Z,50.23
2019-02-02T10:33:22.971Z,52.98
2019-02-02T10:35:51.289Z,54.03
2019-02-02T10:38:19.563Z,55.30
2019-02-02T10:40:47.819Z,54.65
2019-02-02T10:43:16.113Z,56.88
2019-02-02T10:45:44.381Z,53.50
2019-02-02T10:48:12.637Z,54.30
2019-02-02T10:50:40.947Z,57.93
2019-02-02T10:53:09.276Z,56.33
2019-02-02T10:55:37.578Z,58.90
2019-02-02T10:58:05.929Z,56.18
2019-02-02T11:00:37.205Z,58.63
2019-02-02T11:03:05.490Z,58.92
2019-02-02T11:05:34.030Z,60.38
2019-02-02T11:08:04.609Z,58.40
2019-02-02T11:10:34.288Z,58.10
2019-02-02T11:13:02.604Z,55.80
2019-02-02T11:15:30.931Z,64.03
2019-02-02T11:17:59.389Z,56.55
2019-02-02T11:20:30.307Z,58.70
2019-02-02T11:22:58.645Z,56.35
2019-02-02T11:25:27.052Z,57.45
2019-02-02T11:27:55.498Z,57.23
2019-02-02T11:30:24.370Z,57.45
2019-02-02T11:32:52.645Z,57.83
2019-02-02T11:35:21.763Z,53.85
2019-02-02T11:37:50.029Z,55.98
2019-02-02T11:40:24.010Z,55.95
2019-02-02T11:42:52.272Z,58.68
2019-02-02T11:45:20.574Z,55.80
2019-02-02T11:47:48.855Z,59.63
2019-02-02T11:50:19.063Z,59.27
2019-02-02T11:52:47.339Z,55.33
2019-02-02T11:55:17.941Z,60.30
2019-02-02T11:57:46.215Z,54.88
2019-02-02T12:03:18.018Z,56.05
2019-02-02T12:05:46.318Z,57.33
2019-02-02T12:08:14.592Z,55.40
2019-02-02T12:10:42.880Z,53.30
2019-02-02T12:13:11.155Z,58.13
2019-02-02T12:15:39.468Z,53.25
2019-02-02T12:18:07.786Z,57.43
2019-02-02T12:20:36.059Z,55.30
2019-02-02T12:23:04.340Z,55.05
2019-02-02T12:25:32.602Z,61.83
2019-02-02T12:28:00.928Z,53.80
2019-02-02T12:30:50.314Z,55.48
2019-02-02T12:33:18.581Z,58.80
2019-02-02T12:35:46.852Z,56.23
2019-02-02T12:38:15.139Z,57.15
2019-02-02T12:40:43.411Z,55.98
2019-02-02T12:43:11.840Z,57.65
2019-02-02T12:46:04.056Z,61.77
2019-02-02T12:48:32.574Z,55.78
2019-02-02T12:51:01.109Z,58.33
2019-02-02T12:53:29.367Z,57.40
2019-02-02T12:55:57.639Z,57.95
2019-02-02T12:58:25.911Z,57.25
2019-02-02T13:00:54.318Z,57.23
2019-02-02T13:03:22.639Z,60.90
2019-02-02T13:05:50.922Z,59.13
2019-02-02T13:08:19.195Z,60.63
2019-02-02T13:10:47.482Z,58.58
2019-02-02T13:13:15.791Z,58.38
2019-02-02T13:15:44.075Z,62.08
2019-02-02T13:18:12.352Z,58.10
2019-02-02T13:20:40.619Z,63.25
2019-02-02T13:23:08.926Z,61.02
2019-02-02T13:25:37.223Z,59.00
2019-02-02T13:28:05.511Z,56.40
2019-02-02T13:30:35.419Z,58.02
2019-02-02T13:33:04.151Z,58.68
2019-02-02T13:35:35.331Z,56.55
2019-02-02T13:38:03.594Z,58.78
2019-02-02T13:40:31.857Z,57.38
2019-02-02T13:43:00.163Z,56.15
2019-02-02T13:45:28.423Z,58.50
2019-02-02T13:47:56.690Z,56.75
2019-02-02T13:50:24.966Z,55.00
2019-02-02T13:52:53.233Z,54.88
2019-02-02T13:55:21.510Z,59.42
2019-02-02T13:57:49.779Z,56.45
2019-02-02T14:00:23.658Z,55.20
2019-02-02T14:03:02.322Z,59.33
2019-02-02T14:05:21.933Z,55.52
2019-02-02T14:07:50.292Z,56.50
2019-02-02T14:10:29.114Z,54.05
2019-02-02T14:12:57.386Z,57.33
2019-02-02T14:15:25.664Z,55.67
2019-02-02T14:17:53.971Z,56.30
2019-02-02T14:20:22.239Z,56.08
2019-02-02T14:22:50.524Z,53.35
2019-02-02T14:25:18.873Z,55.92
2019-02-02T14:27:47.151Z,55.10
2019-02-02T14:30:18.031Z,54.80
2019-02-02T14:32:46.306Z,54.23
2019-02-02T14:35:16.339Z,55.60
2019-02-02T14:37:44.626Z,54.30
2019-02-02T14:40:14.738Z,54.95
2019-02-02T14:42:42.999Z,56.77
2019-02-02T14:45:13.519Z,54.55
2019-02-02T14:47:41.807Z,54.88
2019-02-02T14:50:20.378Z,54.67
2019-02-02T14:52:49.390Z,55.12
2019-02-02T14:55:20.283Z,56.53
2019-02-02T14:57:48.562Z,52.08
2019-02-02T15:00:19.818Z,54.03
2019-02-02T15:02:48.099Z,52.40
2019-02-02T15:05:16.766Z,52.05
2019-02-02T15:07:45.057Z,55.08
2019-02-02T15:10:14.555Z,57.50
2019-02-02T15:12:42.999Z,52.23
2019-02-02T15:15:13.339Z,53.52
2019-02-02T15:17:44.350Z,54.67
2019-02-02T15:20:32.646Z,56.50
2019-02-02T15:23:00.922Z,53.10
2019-02-02T15:25:29.220Z,54.53
2019-02-02T15:27:57.616Z,56.15
2019-02-02T15:30:28.228Z,54.00
2019-02-02T15:32:56.493Z,56.80
2019-02-02T15:35:24.806Z,54.83
2019-02-02T15:37:53.066Z,57.95
2019-02-02T15:40:21.717Z,52.05
2019-02-02T15:43:09.411Z,55.10
2019-02-02T15:45:37.714Z,54.90
2019-02-02T15:48:05.986Z,55.10
2019-02-02T15:50:34.271Z,54.90
2019-02-02T15:53:02.538Z,51.92
2019-02-02T15:55:30.810Z,52.55
2019-02-02T15:57:59.199Z,52.50
2019-02-02T16:00:32.295Z,54.48
2019-02-02T16:03:00.575Z,54.45
2019-02-02T16:05:29.672Z,53.35
2019-02-02T16:08:19.026Z,53.23
2019-02-02T16:10:47.292Z,52.03
2019-02-02T16:13:15.599Z,54.58
2019-02-02T16:15:43.873Z,50.08
2019-02-02T16:18:12.134Z,50.20
2019-02-02T16:20:42.679Z,51.77
2019-02-02T16:23:11.010Z,52.40
2019-02-02T16:25:39.305Z,50.55
2019-02-02T16:28:07.565Z,51.83
2019-02-02T16:30:35.847Z,51.83
2019-02-02T16:33:04.191Z,52.05
2019-02-02T16:35:32.453Z,51.45
2019-02-02T16:38:00.735Z,50.10
2019-02-02T16:40:30.053Z,49.58
2019-02-02T16:42:58.337Z,50.92
2019-02-02T16:45:28.354Z,50.73
2019-02-02T16:47:56.623Z,49.97
2019-02-02T16:50:24.891Z,51.28
2019-02-02T16:52:53.171Z,50.45
2019-02-02T16:55:21.495Z,50.35
2019-02-02T16:57:49.774Z,51.53
2019-02-02T17:00:20.378Z,48.83
2019-02-02T17:02:48.695Z,53.10
2019-02-02T17:05:16.958Z,49.00
2019-02-02T17:07:46.399Z,50.43
2019-02-02T17:10:24.034Z,48.60
2019-02-02T17:12:52.315Z,44.73
2019-02-02T17:15:20.594Z,49.63
2019-02-02T17:17:48.863Z,50.10
2019-02-02T17:20:23.092Z,53.87
2019-02-02T17:22:51.356Z,53.50
2019-02-02T17:25:40.708Z,50.45
2019-02-02T17:28:08.976Z,52.40
2019-02-02T17:30:38.075Z,50.48
2019-02-02T17:33:08.815Z,58.05
2019-02-02T17:35:37.096Z,50.95
2019-02-02T17:38:05.364Z,52.40
2019-02-02T17:40:33.646Z,52.13
2019-02-02T17:43:01.914Z,56.92
2019-02-02T17:45:30.190Z,55.50
2019-02-02T17:47:58.478Z,53.17
2019-02-02T17:50:28.483Z,55.08
2019-02-02T17:52:56.761Z,54.60
2019-02-02T17:55:25.034Z,51.70
2019-02-02T17:57:53.317Z,53.30
2019-02-02T18:00:25.792Z,52.85
2019-02-02T18:02:54.066Z,51.95
2019-02-02T18:05:22.323Z,51.28
2019-02-02T18:07:50.621Z,53.50
2019-02-02T18:10:18.897Z,51.40
2019-02-02T18:12:47.237Z,53.08
2019-02-02T18:15:16.263Z,50.00
2019-02-02T18:17:44.827Z,49.63
2019-02-02T18:20:15.151Z,50.08
2019-02-02T18:22:43.440Z,51.00
2019-02-02T18:25:32.743Z,50.25
2019-02-02T18:28:01.047Z,48.13
2019-02-02T18:30:29.327Z,50.75
2019-02-02T18:32:57.591Z,50.88
2019-02-02T18:35:25.892Z,50.30
2019-02-02T18:37:54.234Z,50.28
2019-02-02T18:40:23.655Z,48.58
2019-02-02T18:42:51.931Z,48.73
2019-02-02T18:45:48.225Z,50.25
2019-02-02T18:48:16.478Z,47.20
2019-02-02T18:50:44.771Z,47.88
2019-02-02T18:53:32.486Z,49.18
2019-02-02T18:56:01.197Z,49.83
2019-02-02T18:58:29.455Z,48.00
2019-02-02T19:00:57.763Z,48.13
2019-02-02T19:03:26.084Z,47.23
2019-02-02T19:05:54.379Z,48.50
2019-02-02T19:08:22.645Z,50.65
2019-02-02T19:10:50.903Z,47.60
2019-02-02T19:13:19.185Z,49.10
2019-02-02T19:15:47.451Z,50.58
2019-02-02T19:18:15.751Z,51.33
2019-02-02T19:20:44.075Z,48.58
2019-02-02T19:23:24.274Z,49.98
2019-02-02T19:25:42.353Z,51.18
2019-02-02T19:28:10.690Z,48.70
2019-02-02T19:30:38.971Z,48.80
2019-02-02T19:33:07.254Z,49.63
2019-02-02T19:35:35.526Z,49.38
2019-02-02T19:38:03.790Z,49.00
2019-02-02T19:40:32.072Z,48.05
2019-02-02T19:43:00.343Z,53.40
2019-02-02T19:45:29.342Z,52.08
2019-02-02T19:47:57.627Z,50.43
2019-02-02T19:50:27.242Z,48.73
2019-02-02T19:52:55.523Z,51.88
2019-02-02T19:55:23.782Z,47.53
2019-02-02T19:57:52.067Z,48.25
2019-02-02T20:00:22.942Z,51.02
2019-02-02T20:02:51.215Z,51.08
2019-02-02T20:05:28.150Z,47.33
2019-02-02T20:07:49.466Z,50.67
2019-02-02T20:10:18.367Z,48.58
2019-02-02T20:12:46.633Z,50.85
2019-02-02T20:15:17.155Z,51.73
2019-02-02T20:17:45.907Z,50.40
2019-02-02T20:20:33.710Z,47.53
2019-02-02T20:23:01.978Z,51.83
2019-02-02T20:25:30.255Z,47.85
2019-02-02T20:27:58.514Z,50.23
2019-02-02T20:30:31.243Z,52.30
2019-02-02T20:32:59.542Z,49.80
2019-02-02T20:35:39.807Z,50.85
2019-02-02T20:37:58.007Z,46.77
2019-02-02T20:40:27.054Z,50.17
2019-02-02T20:42:55.411Z,48.17
2019-02-02T20:45:47.549Z,48.52
2019-02-02T20:48:15.810Z,49.75
2019-02-02T20:50:44.087Z,47.43
2019-02-02T20:53:12.345Z,45.98
2019-02-02T20:55:43.167Z,45.92
2019-02-02T20:58:11.431Z,44.75
2019-02-02T21:00:39.862Z,44.10
2019-02-02T21:03:08.218Z,47.85
2019-02-02T21:05:36.483Z,49.13
2019-02-02T21:08:05.235Z,50.28
2019-02-02T21:10:33.508Z,48.70
2019-02-02T21:13:01.886Z,48.78
2019-02-02T21:15:30.142Z,52.17
2019-02-02T21:17:58.428Z,47.23
2019-02-02T21:20:28.812Z,47.27
2019-02-02T21:22:57.087Z,48.45
2019-02-02T21:25:25.438Z,45.92
2019-02-02T21:27:53.788Z,49.65
2019-02-02T21:30:24.232Z,49.15
2019-02-02T21:32:52.555Z,47.58
2019-02-02T21:35:21.303Z,46.20
2019-02-02T21:37:49.574Z,45.40
2019-02-02T21:40:20.733Z,45.00
2019-02-02T21:42:49.025Z,42.85
2019-02-02T21:45:17.394Z,44.85
2019-02-02T21:47:45.730Z,48.23
2019-02-02T21:50:19.408Z,47.03
2019-02-02T21:52:47.674Z,45.80
2019-02-02T21:55:18.243Z,42.67
2019-02-02T21:57:46.522Z,45.33
2019-02-02T22:00:26.048Z,42.70
2019-02-02T22:02:54.484Z,45.95
2019-02-02T22:05:23.086Z,44.15
2019-02-02T22:07:51.359Z,42.43
2019-02-02T22:10:19.704Z,42.55
2019-02-02T22:12:48.047Z,42.45
2019-02-02T22:15:21.607Z,45.50
2019-02-02T22:17:49.891Z,43.05
2019-02-02T22:20:18.623Z,40.58
2019-02-02T22:22:46.918Z,42.78
2019-02-02T22:25:17.879Z,41.15
2019-02-02T22:27:46.411Z,42.35
2019-02-02T22:30:44.835Z,39.83
2019-02-02T22:33:13.114Z,38.48
2019-02-02T22:35:41.660Z,39.18
2019-02-02T22:38:09.944Z,41.85
2019-02-02T22:40:38.211Z,40.40
2019-02-02T22:43:06.473Z,41.30
2019-02-02T22:45:34.841Z,39.27
2019-02-02T22:48:03.275Z,40.23
2019-02-02T22:50:31.931Z,40.00
2019-02-02T22:53:00.194Z,39.50
2019-02-02T22:55:28.490Z,36.55
2019-02-02T22:57:56.746Z,38.28
2019-02-02T23:00:52.332Z,38.60
2019-02-02T23:03:41.711Z,38.40
2019-02-02T23:06:19.013Z,34.98
2019-02-02T23:09:14.285Z,35.73
2019-02-02T23:12:02.547Z,35.85
2019-02-02T23:15:04.056Z,37.42
2019-02-02T23:17:32.319Z,34.78
2019-02-02T23:20:01.056Z,37.05
2019-02-02T23:22:29.337Z,37.55
2019-02-02T23:24:57.670Z,36.03
2019-02-02T23:27:26.151Z,35.95
2019-02-02T23:29:54.646Z,34.92
2019-02-02T23:32:22.907Z,35.45
2019-02-02T23:34:51.295Z,35.50
2019-02-02T23:37:19.563Z,38.55
2019-02-02T23:39:47.897Z,36.50
2019-02-02T23:42:16.180Z,38.00
2019-02-02T23:44:44.435Z,35.23
2019-02-02T23:47:12.718Z,37.05
2019-02-02T23:49:40.983Z,37.15
2019-02-02T23:52:09.262Z,38.58
2019-02-02T23:54:37.526Z,37.28
2019-02-02T23:57:25.228Z,39.58
2019-02-02T23:59:53.759Z,36.70
